ICT,Max TemperatureF,Mean TemperatureF,Min TemperatureF,Max Dew PointF,MeanDew PointF,Min DewpointF,Max Humidity, Mean Humidity, Min Humidity, Max Sea Level PressureIn, Mean Sea Level PressureIn, Min Sea Level PressureIn, Max VisibilityMiles, Mean VisibilityMiles, Min VisibilityMiles, Max Wind SpeedMPH, Mean Wind SpeedMPH, Max Gust SpeedMPH,PrecipitationIn, CloudCover, Events, WindDirDegrees
2013-2-1,80,70,60,63,61,59,94,72,51,30.15,30.06,29.98,6,6,1,7,4,,0.00,3,,73
2013-2-2,75,68,62,64,63,59,94,82,57,30.12,30.04,30.00,6,6,2,17,3,30,0.00,5,Rain-Thunderstorm,96
2013-2-3,78,71,64,66,62,59,100,77,57,30.09,30.00,29.92,6,6,2,46,5,,0.00,5,Rain-Thunderstorm,33
2013-2-4,78,70,62,66,64,61,94,82,57,30.09,30.03,29.95,6,6,6,6,4,,0.00,3,,25
2013-2-5,86,74,62,64,63,55,94,70,35,30.12,30.02,29.95,6,6,3,6,2,,0.00,1,,75
2013-2-6,87,74,60,64,60,57,94,63,35,30.06,29.95,29.86,5,5,5,6,3,,0.00,,,19
2013-2-7,91,75,59,59,55,48,94,53,23,29.98,29.86,29.77,,,,14,5,,0.00,,,232
2013-2-8,87,71,55,63,56,50,100,58,27,29.95,29.88,29.80,6,6,6,5,1,,0.00,1,,54
2013-2-9,89,74,60,64,60,57,94,59,33,30.01,29.92,29.86,6,6,6,6,2,,0.00,1,,106
2013-2-10,86,75,64,70,66,63,94,66,51,30.01,29.92,29.83,5,4,2,5,2,,0.00,3,,134
2013-2-11,89,78,68,70,67,64,94,68,43,29.98,29.90,29.80,5,3,1,7,3,,0.00,1,,150
2013-2-12,89,84,78,70,67,64,74,56,43,29.98,29.87,29.83,4,4,4,6,4,,0.00,1,,82
2013-2-13,89,79,69,70,66,64,94,64,43,29.98,29.89,29.80,6,4,2,9,3,,0.00,3,Thunderstorm,168
2013-2-14,87,78,69,68,65,63,88,62,43,30.01,29.90,29.83,6,5,3,14,4,16,0.00,4,,100
2013-2-15,87,76,66,70,66,64,94,70,46,30.01,29.90,29.80,5,5,5,5,2,,0.00,1,,59
2013-2-16,89,79,69,70,67,64,94,64,43,29.98,29.87,29.77,5,4,2,6,3,,0.00,2,,67
2013-2-17,89,78,68,70,66,63,94,63,40,29.95,29.83,29.74,4,4,1,7,2,,0.00,6,,151
2013-2-18,89,79,69,68,65,61,83,61,38,29.89,29.81,29.71,4,3,2,10,2,,0.00,4,,167
2013-2-19,91,78,64,68,62,52,94,59,26,29.95,29.84,29.74,6,4,2,6,3,,0.00,1,,94
2013-2-20,87,78,69,68,64,59,78,55,42,29.95,29.85,29.77,,,,9,3,,0.00,,,126
2013-2-21,87,78,69,70,67,64,88,65,48,29.98,29.89,29.80,5,4,3,8,3,,0.00,3,Thunderstorm,149
2013-2-22,82,75,68,70,66,63,94,69,54,30.06,29.99,29.92,5,4,2,7,3,,0.00,4,,160
2013-2-23,82,76,71,66,64,61,83,66,48,30.12,30.03,29.95,6,5,5,7,3,,0.00,5,,63
2013-2-24,84,74,64,66,62,59,94,64,42,30.06,29.97,29.89,6,5,2,8,2,,0.00,1,,78
2013-2-25,86,76,66,68,65,61,94,64,43,30.04,29.94,29.83,5,3,2,7,2,,0.00,,,93
2013-2-26,91,78,66,70,65,57,94,63,31,30.01,29.91,29.80,5,4,2,6,2,,0.00,1,,141
2013-2-27,91,78,66,66,62,55,94,61,29,29.95,29.86,29.77,4,3,2,6,2,,0.00,,,110
2013-2-28,91,76,60,64,58,48,94,57,23,29.92,29.81,29.74,5,4,3,5,1,,0.00,3,,71